Stjerne skud på nattehimlen netop nu: Orioniderne 2. oktober-7. november, topper den 21-22.oktober, Tauriderne og Leoniderne 6.november-30.november. Se langvarige stjerneskud med lange haler.
  • Kilde planetariet
  • Ny Tablet venlig Vejr3


  • Vejr3>N more information Vejr3>N


    3 timers nedbørs radar more information rain snow radar


    besøg nogle andre vejrsider:

    Template dokumentation
    og downloads

    And another site


    Select another period ( hide this area )

    enheder periode Custom range Directly to
    metrisk engelsk både
    dagens ugenligt månedlig årligt
    use both date-selectors for a custom range
    forgående dag
    With this date

    WeatherUnderground graphs for this period ( click here )


    dagens sammenfatning af tirsdag 22 oktober 2019
    tid Temp. ( °C ) Dew pt. ( °C ) vind ( km/h ) fra vindstød ( km/h ) lufttryk ( hPa ) Humid.( % ) Rainrate ( cm ) solenergi ( W/m2 )
    høj12,8 12,2 19,3 ssø ( 864/1723 ) 29,0 1018,9 100 0,30 43.7
    gennemsnit11,7 11,2 6,6 ssø #122/261 11,9 1017,4 97 0,60 28 #119/261
    lav10,3 9,8 -   0,0 1016,2 91 -  
    dagens Tabular details for tirsdag 22 oktober 2019
    tid Temp. ( °C ) Dew pt. ( °C ) vind ( km/h ) fra vindstød ( km/h ) lufttryk ( hPa ) Humid.( % ) Rainrate ( cm ) solenergi ( W/m2 )
    00:00 12,1 12,1 4,8 ssø 11,3 1016,8 100 - -
    00:05 12,1 12,1 1,6 ssø 4,8 1016,8 100 - -
    00:10 12,1 12,1 11,3 syd 2,7 1016,7 100 - -
    00:15 12,1 12,1 13,0 syd 6,8 1016,7 100 - -
    00:20 12,1 12,1 4,8 syd 4,8 1016,8 100 - -
    00:25 12,1 12,1 9,7 syd 9,7 1016,9 100 - -
    00:30 12,2 12,2 4,8 ssø 19,3 1016,9 100 - -
    00:35 12,2 12,2 4,8 ssø 8,0 1017,0 100 - -
    00:40 12,2 12,2 8,0 ssø 11,3 1017,0 100 - -
    00:45 12,2 12,2 4,8 ssø 14,5 1016,8 100 - -
    00:50 12,2 12,2 1,6 syd 9,7 1016,8 100 - -
    00:55 12,2 12,2 7,4 syd 5,3 1016,7 100 - -
    01:00 12,2 12,2 3,2 ssø 4,8 1016,7 100 - -
    01:05 12,2 12,2   stille 6,4 1016,8 100 - -
    01:10 12,1 12,1 1,6 ssø 6,4 1016,7 100 - -
    01:15 12,0 12,0 3,2 ssø 6,4 1016,8 100 - -
    01:20 11,9 11,9 5,6 vnv 1,6 1016,7 100 - -
    01:25 11,9 11,9 8,0 ssø 3,4 1016,8 100 - -
    01:30 11,9 11,9 3,2 ssø 9,7 1016,8 100 - -
    01:35 11,9 11,9 11,1 ssø 4,7 1016,8 100 - -
    01:40 11,9 11,9 1,6 ssø 11,3 1016,8 100 - -
    01:45 11,9 11,9 3,2 ssø 11,3 1016,8 100 - -
    01:50 11,9 11,9 1,6 sv 8,0 1017,0 100 - -
    01:55 11,9 11,9 4,8 sv 8,0 1017,1 100 - -
    02:00 11,8 11,8 8,0 sv 14,5 1017,0 100 - -
    02:05 11,8 11,8 1,6 vsv 6,4 1017,0 100 - -
    02:10 11,8 11,8 8,0 vsv 16,1 1017,0 100 - -
    02:15 11,8 11,8 4,8 vsv 11,3 1017,1 100 - -
    02:20 11,8 11,8 8,0 vsv 12,9 1017,0 100 - -
    02:25 11,8 11,8 9,7 vsv 19,3 1017,0 100 - -
    02:30 11,8 11,8 4,8 sv 14,5 1017,1 100 - -
    02:35 11,8 11,8 4,8 sv 9,7 1017,1 100 - -
    02:40 11,8 11,8 8,0 sv 11,3 1017,1 100 - -
    02:45 11,8 11,8 3,2 vsv 11,3 1017,1 100 - -
    02:50 11,8 11,8 3,2 vsv 6,4 1017,1 100 - -
    02:55 11,8 11,8 1,6 vsv 6,4 1017,1 100 - -
    03:00 11,8 11,8 1,6 sv 4,8 1017,1 100 - -
    03:05 11,8 11,8 1,6 ssø 8,0 1017,1 100 - -
    03:10 11,8 11,8 1,6 ssø 9,7 1017,0 100 - -
    03:15 11,8 11,8 9,3 vsv 5,6 1017,0 100 - -
    03:20 11,8 11,8 1,6 sv 4,8 1017,0 100 - -
    03:25 11,8 11,8 3,2 ssø 6,4 1016,9 100 - -
    03:30 11,8 11,8 4,8 ssø 9,7 1016,9 100 - -
    03:35 11,8 11,8 1,6 syd 8,0 1017,0 100 - -
    03:40 11,8 11,8 4,8 ssø 6,4 1016,9 100 - -
    03:45 11,8 11,8 8,0 ssø 14,5 1016,7 100 - -
    03:50 11,7 11,7 1,6 sv 4,8 1016,6 100 - -
    03:55 11,7 11,7 1,6 sv 4,8 1016,6 100 - -
    04:00 11,6 11,6 3,2 sv 6,4 1016,6 100 - -
    04:05 11,6 11,6 1,6 sv 4,8 1016,6 100 - -
    04:10 11,6 11,6 3,2 ssø 11,3 1016,6 100 - -
    04:15 11,6 11,6 4,8 sv 6,4 1016,6 100 - -
    04:20 11,5 11,5   stille 4,8 1016,6 100 - -
    04:25 11,5 11,5 1,6 syd 6,4 1016,6 100 - -
    04:30 11,4 11,4 1,6 ssø 3,2 1016,5 100 - -
    04:35 11,4 11,4   stille 3,2 1016,6 100 - -
    04:40 11,4 11,4 1,6 ssø 3,2 1016,5 100 - -
    04:45 11,3 11,3 1,6 ssø 6,4 1016,5 100 - -
    04:50 11,2 11,2 3,2 6,4 1016,4 100 - -
    04:55 11,1 11,1 4,8 6,4 1016,3 100 - -
    05:00 11,0 11,0 3,2 4,8 1016,3 100 - -
    05:05 10,9 10,9 1,6 ssø 4,8 1016,5 100 - -
    05:10 10,9 10,9 3,2 ssø 4,8 1016,4 100 - -
    05:15 10,9 10,9 3,2 ssø 8,0 1016,3 100 - -
    05:20 10,9 10,9   stille 3,2 1016,3 100 - -
    05:25 10,9 10,9   stille 1,6 1016,3 100 - -
    05:30 10,9 10,9 3,2 syd 8,0 1016,4 100 - -
    05:35 10,9 10,9 1,6 ssø 4,8 1016,4 100 - -
    05:40 10,9 10,9 1,6 ssø 9,7 1016,4 100 - -
    05:45 11,1 11,1 1,6 syd 6,4 1016,3 100 - -
    05:50 11,2 11,2 1,9 ssø 0,3 1016,3 100 - -
    05:55 11,3 11,3 1,6 ssø 9,7 1016,3 100 - -
    06:00 11,3 11,3 3,2 syd 6,4 1016,3 100 - -
    06:05 11,3 11,3 3,2 syd 6,4 1016,2 100 - -
    06:10 11,3 11,3   stille 3,2 1016,2 100 - -
    06:15 11,3 11,3   stille   1016,3 100 - -
    06:20 11,3 11,3 3,2 syd 4,8 1016,3 100 - -
    06:25 11,3 11,3 3,2 syd 11,3 1016,3 100 - -
    06:30 11,3 11,3 3,2 syd 8,0 1016,3 100 - -
    06:35 11,2 11,2 3,2 syd 9,7 1016,4 100 - -
    06:40 11,2 11,2 4,8 ssø 9,7 1016,4 100 - -
    06:45 11,2 11,2 3,2 syd 11,3 1016,4 100 - -
    06:50 11,2 11,2 4,8 syd 9,7 1016,4 100 - -
    06:55 11,2 11,2 1,6 syd 6,4 1016,3 100 - -
    07:00 11,2 11,2 4,8 syd 11,3 1016,2 100 - -
    07:05 11,2 11,2 4,8 syd 8,0 1016,3 100 - -
    07:10 11,2 11,2 3,2 syd 8,0 1016,3 100 - -
    07:15 11,2 11,2 1,6 ssø 6,4 1016,4 100 - -
    07:20 11,2 11,2 3,2 ssø 8,0 1016,4 100 - -
    07:25 11,2 11,2 3,2 ssø 9,7 1016,5 100 - -
    07:30 11,2 11,2 8,0 ssø 19,3 1016,5 100 - -
    07:35 11,2 11,2 3,2 ssø 11,3 1016,5 100 - -
    07:40 11,2 11,2 3,2 ssø 16,1 1016,6 100 - -
    07:45 11,2 11,2 8,0 ssø 12,9 1016,6 100 - -
    07:50 11,1 11,1 8,0 sv 8,0 1016,6 100 - -
    07:55 11,1 11,1 4,8 sv 22,5 1016,6 100 - 0.7
    08:00 11,0 11,0 4,8 ssø 14,5 1016,7 100 - 1.6
    08:05 10,9 10,9 9,7 syd 16,1 1016,8 100 - 2.7
    08:10 10,9 10,9 4,8 ssø 8,0 1016,7 100 - 3.8
    08:15 10,9 10,9 3,2 syd 12,9 1016,8 100 - 4.9
    08:20 10,8 10,8 4,8 ssø 9,7 1016,8 100 - 6.1
    08:25 10,8 10,8 4,8 syd 8,0 1016,8 100 - 7.2
    08:30 10,7 10,7 8,0 syd 19,3 1016,8 100 - 8.4
    08:35 10,6 10,6 8,0 ssø 11,3 1016,9 100 - 9.6
    08:40 10,5 10,5 3,2 syd 11,3 1017,0 100 - 10.8
    08:45 10,4 10,4 4,8 syd 11,3 1017,1 100 - 12
    08:50 10,4 10,4 4,8 syd 11,3 1017,1 100 - 13.3
    08:55 10,3 10,3 3,2 ssø 9,7 1017,2 100 - 14.5
    09:00 10,3 10,3 8,0 syd 19,3 1017,1 100 0,30 15.8
    09:05 10,4 10,4 7,4 ssø 2,7 1017,2 100 0,30 39
    09:10 10,4 10,4 4,8 ssø 16,1 1017,2 100 - 18.1
    09:15 10,4 10,4 4,8 syd 14,5 1017,2 100 - 19.3
    09:20 10,5 10,5 4,8 syd 14,5 1017,2 100 - 20.3
    09:25 10,6 10,6 3,2 ssø 8,0 1017,2 100 - 21.5
    09:30 10,6 10,3 4,8 ssø 9,7 1017,2 98 - 22.5
    09:35 10,7 10,2 4,8 ssø 8,0 1017,1 97 - 23.6
    09:40 10,7 10,7 4,8 ssø 4,8 1017,1 100 - 24.7
    09:45 10,7 10,6 4,8 syd 9,7 1017,1 99 - 25.7
    09:50 10,8 10,3 4,8 ssø 14,5 1017,1 97 - 26.7
    09:55 10,8 10,3 4,8 syd 9,7 1017,1 97 - 27.9
    10:00 10,8 10,4 11,3 syd 19,3 1017,1 97 - 28.8
    10:05 10,9 10,4 11,3 ssø 19,3 1017,2 97 - 29.6
    10:10 10,9 10,5 11,3 ssø 19,3 1017,3 97 - 30.6
    10:15 11,1 10,6 9,7 syd 19,3 1017,4 97 - 31.5
    10:20 11,1 10,7 9,7 ssø 14,5 1017,4 97 - 32.3
    10:25 11,2 10,7 8,0 ssø 16,1 1017,4 97 - 33.2
    10:30 11,2 10,8 9,7 ssø 19,3 1017,5 97 - 34
    10:35 11,3 10,8 11,3 syd 19,3 1017,5 97 - 34.8
    10:40 11,3 10,7 14,5 syd 25,7 1017,6 96 - 35.5
    10:45 11,4 10,8 12,9 ssø 24,1 1017,6 96 - 36.1
    10:50 11,6 10,9 11,3 ssø 19,3 1017,7 96 - 36.6
    10:55 11,6 10,8 14,5 syd 25,7 1017,7 95 - 37.3
    11:00 11,7 10,9 16,1 ssø 29,0 1017,7 95 - 37.8
    11:05 11,8 11,1 12,9 syd 29,0 1017,7 95 - 37.9
    11:10 12,0 11,1 9,7 syd 25,7 1017,6 94 - 38.3
    11:15 12,1 11,0 19,3 syd 24,1 1017,7 93 - 38.7
    11:20 12,3 11,2 11,3 ssø 19,3 1017,7 93 - 38.8
    11:25 12,4 11,3 11,3 syd 19,3 1017,7 93 - 39
    11:30 12,4 11,1 11,3 syd 22,5 1017,7 92 - 39.5
    11:35 12,4 11,1 11,3 ssø 19,3 1017,8 92 - 40.1
    11:40 12,3 11,1 11,3 syd 22,5 1017,8 92 - 40.8
    11:45 12,3 11,1 12,9 syd 20,9 1017,7 92 - 41.3
    11:50 12,3 11,1 11,3 syd 22,5 1017,6 92 - 41.8
    11:55 12,3 11,1 12,9 ssø 16,1 1017,8 92 - 42.1
    12:00 12,3 11,1 9,7 syd 19,3 1017,8 92 - 42.3
    12:05 12,4 11,2 8,0 syd 11,3 1017,7 92 - 42.4
    12:10 12,5 11,2 11,3 syd 20,9 1017,6 92 - 42.5
    12:15 12,6 11,3 8,0 syd 11,3 1017,6 92 - 42.6
    12:20 12,6 11,3 11,3 syd 19,3 1017,5 92 - 42.7
    12:25 12,7 11,2 12,9 ssø 19,3 1017,6 91 - 42.6
    12:30 12,7 11,2 9,7 ssø 19,3 1017,6 91 - 42.8
    12:35 12,6 11,4 8,0 ssø 19,3 1017,5 92 - 43.1
    12:40 12,6 11,2 11,3 ssø 19,3 1017,6 91 - 43.4
    12:45 12,6 11,3 9,7 ssø 24,1 1017,6 92 - 43.5
    12:50 12,6 11,3 11,3 ssø 24,1 1017,6 92 - 43.5
    12:55 12,5 11,3 9,7 ssø 9,7 1017,6 92 - 43.7
    13:00 12,5 11,2 12,9 ssø 22,5 1017,8 92 - 43.6
    13:05 12,4 11,2 12,9 ssø 22,5 1017,8 92 - 43.6
    13:10 12,4 11,2 12,9 ssø 19,3 1017,8 92 - 43.5
    13:15 12,4 11,1 9,7 ssø 16,1 1017,8 92 - 43.6
    13:20 12,4 11,1 11,3 ssø 16,1 1017,8 92 - 43.4
    13:25 12,4 11,1 9,7 syd 19,3 1017,8 92 - 43.1
    13:30 12,4 11,1 4,8 ssø 20,9 1017,8 92 - 42.9
    13:35 12,4 11,1 9,7 syd 12,9 1017,8 92 - 42.6
    13:40 12,4 11,3 11,3 ssø 19,3 1017,9 93 - 42.3
    13:45 12,4 11,3 9,7 ssø 24,1 1017,9 93 - 41.7
    13:50 12,4 11,3 12,9 ssø 20,9 1017,8 93 - 41.2
    13:55 12,4 11,3 9,7 ssø 19,3 1017,7 93 - 40.9
    14:00 12,5 11,4 9,7 ssø 22,5 1017,7 93 - 40.1
    14:05 12,6 11,5 11,3 ssø 16,1 1017,7 93 - 39.3
    14:10 12,7 11,6 12,9 ssø 20,9 1017,6 93 - 38.6
    14:15 12,7 11,6 11,3 ssø 19,3 1017,6 93 - 37.8
    14:20 12,8 11,7 8,0 sv 19,3 1017,6 93 - 37.1
    14:25 12,8 11,7 9,7 ssø 16,1 1017,7 93 - 36.5
    14:30 12,8 11,5 4,8 sv 8,0 1017,7 92 - 35.8
    14:35 12,8 11,7 4,8 ssø 16,1 1017,7 93 - 35.2
    14:40 12,8 11,7 11,3 sv 11,3 1017,8 93 - 34.5
    14:45 12,8 11,7 11,3 sv 11,3 1017,8 93 - 33.8
    14:50 12,8 11,7 8,0 sv 16,1 1017,8 93 - 33
    14:55 12,8 11,7 9,7 ssø 14,5 1017,8 93 - 32.2
    15:00 12,8 11,7 11,3 ssø 17,7 1017,8 93 - 31.3
    15:05 12,8 11,7 9,7 sv 19,3 1017,7 93 - 30.7
    15:10 12,7 11,6 8,0 ssø 16,1 1017,7 93 - 30
    15:15 12,7 11,6 11,3 sv 19,3 1017,7 93 - 29.2
    15:20 12,7 11,6 14,8 vsv 7,7 1017,7 93 - 28.4
    15:25 12,7 11,6 12,9 sv 20,9 1017,7 93 - 27.6
    15:30 12,7 11,7 4,8 sv 11,3 1017,7 94 - 26.6
    15:35 12,6 11,7 9,7 vsv 14,5 1017,7 94 - 25.8
    15:40 12,6 11,7 9,7 sv 14,5 1017,8 94 - 24.9
    15:45 12,6 11,7 8,0 ssø 11,3 1017,8 94 - 23.9
    15:50 12,6 11,7 11,3 ssø 20,9 1017,8 94 - 23.1
    15:55 12,6 11,6 18,5 ssø 13,4 1017,8 94 - 35
    16:00 12,6 11,6 8,0 ssø 12,9 1017,8 94 - 21.1
    16:05 12,6 11,6 9,7 sv 16,1 1017,8 94 - 20.1
    16:10 12,6 11,6 8,0 vsv 11,3 1017,8 94 - 19.2
    16:15 12,6 11,6 11,3 vsv 19,3 1017,8 94 - 18.1
    16:20 12,6 11,6 3,2 sv 19,3 1017,8 94 - 17.2
    16:25 12,6 11,6 4,8 vsv 9,7 1017,8 94 - 16.1
    16:30 12,6 11,6 8,0 vsv 11,3 1017,8 94 - 15.2
    16:35 12,6 11,6 4,8 vsv 8,0 1017,7 94 - 14.1
    16:40 12,6 11,6 8,0 sv 12,9 1017,7 94 - 13
    16:45 12,6 11,6 9,3 sv 5,8 1017,7 94 - 12.1
    16:50 12,6 11,6 8,0 sv 14,5 1017,7 94 - 11
    16:55 12,6 11,6 8,0 sv 8,0 1017,7 94 - 10.1
    17:00 12,6 11,6 8,0 ssø 9,7 1017,7 94 - 9
    17:05 12,6 11,6 4,8 ssø 11,3 1017,8 94 - 8.1
    17:10 12,6 11,6 4,8 ssø 16,1 1017,8 94 - 7.1
    17:15 12,5 11,6 8,0 ssø 9,7 1017,8 94 - 6.1
    17:20 12,5 11,6 13,0 ssø 7,9 1017,8 94 - 16
    17:25 12,4 11,5 8,0 ssø 14,5 1017,8 94 - 4.2
    17:30 12,4 11,5 8,0 ssø 17,7 1017,7 94 - 3.2
    17:35 12,4 11,4 4,8 sv 8,0 1017,7 94 - 2.3
    17:40 12,3 11,4 1,6 sv 8,0 1017,8 94 - 1.3
    17:45 12,3 11,4 4,8 sv 11,3 1017,8 94 - 0.4
    17:50 12,3 11,3 5,6 ssø 1,8 1017,8 94 - -
    17:55 12,3 11,3 1,6 syd 9,7 1017,8 94 - -
    18:00 12,2 11,4 8,0 ssø 9,7 1017,9 95 - -
    18:05 12,2 11,2 4,8 ssø 12,9 1017,9 94 - -
    18:10 12,2 11,4 4,8 ssø 6,4 1017,9 95 - -
    18:15 12,1 11,3 4,8 ssø 9,7 1018,0 95 - -
    18:20 12,1 11,3 8,0 ssø 9,7 1018,1 95 - -
    18:25 12,0 11,2 8,0 ssø 8,0 1018,1 95 - -
    18:30 11,9 11,2 4,8 ssø 11,3 1018,1 95 - -
    18:35 11,8 11,1 9,7 ssø 16,1 1018,0 95 - -
    18:40 11,8 11,0 11,1 ssø 5,0 1018,0 95 - -
    18:45 11,7 10,9 3,2 ssø 6,4 1018,0 95 - -
    18:50 11,6 10,8 4,8 ssø 11,3 1018,0 95 - -
    18:55 11,5 10,7 4,8 ssø 9,7 1018,1 95 - -
    19:01 11,4 10,7 4,8 syd 8,0 1018,1 95 - -
    19:05 11,3 10,6 4,8 syd 8,0 1018,2 95 - -
    19:10 11,3 10,5 4,8 ssø 11,3 1018,2 95 - -
    19:15 11,2 10,4 4,8 ssø 11,3 1018,3 95 - -
    19:20 11,1 10,3 8,0 syd 14,5 1018,4 95 - -
    19:25 11,1 10,3 3,2 syd 4,8 1018,4 95 - -
    19:30 10,9 10,2 4,8 ssø 11,3 1018,5 95 - -
    19:35 10,9 10,2 4,8 ssø 11,3 1018,3 95 - -
    19:40 10,8 10,1 1,6 ssø 3,2 1018,4 95 - -
    19:45 10,8 10,2 3,2 ssø 6,4 1018,5 96 - -
    19:50 10,8 10,2 4,8 syd 8,0 1018,5 96 - -
    19:55 10,7 10,1 4,8 ssø 9,7 1018,6 96 - -
    20:00 10,7 10,1 4,8 ssø 9,7 1018,6 96 - -
    20:05 10,6 9,9 3,2 ssø 9,7 1018,7 96 - -
    20:10 10,6 9,9 3,2 ssø 6,4 1018,7 96 - -
    20:15 10,5 9,9 3,2 ssø 6,4 1018,8 96 - -
    20:20 10,4 9,8 16,7 ssø 8,2 1018,9 96 - -
    20:25 10,4 10,0 8,0 ssø 9,7 1018,9 97 - -
    20:30 10,6 10,1 8,0 ssø 11,3 1018,8 97 - -
    20:35 10,6 10,2 8,0 ssø 9,7 1018,8 97 - -
    20:40 10,7 10,2 8,0 sv 12,9 1018,9 97 - -
    20:45 10,7 10,3 9,7 sv 16,1 1018,8 97 - -
    20:50 10,8 10,3 3,2 ssø 6,4 1018,8 97 - -
    20:55 10,8 10,3 4,8 sv 9,7 1018,8 97 - -
    21:00 10,7 10,3 4,8 ssø 11,3 1018,8 97 - -
    21:06 10,6 10,2 13,0 syd 6,4 1018,8 97 - -
    21:10 10,6 10,1 11,1 ssø 6,6 1018,8 97 - -
    21:15 10,5 10,1 8,0 ssø 11,3 1018,8 97 - -
    21:20 10,4 10,0 8,0 sv 11,3 1018,8 97 - -
    21:25 10,4 10,0 8,0 sv 19,3 1018,9 97 - -
    21:30 10,4 10,0 11,1 vest 6,9 1018,9 97 - -
    21:35 10,5 10,1 3,2 sv 4,8 1018,9 97 - -
    21:40 10,4 10,0 4,8 sv 9,7 1018,9 97 - -
    dagens sammenfatning af tirsdag 22 oktober 2019
    tid Temp. ( °C ) Dew pt. ( °C ) vind ( km/h ) fra vindstød ( km/h ) lufttryk ( hPa ) Humid.( % ) Rainrate ( cm ) solenergi ( W/m2 )
    høj12,8 12,2 19,3 ssø ( 864/1723 ) 29,0 1018,9 100 0,30 43.7
    gennemsnit11,7 11,2 6,6 ssø #122/261 11,9 1017,4 97 0,60 28 #119/261
    lav10,3 9,8 -   0,0 1016,2 91 -  
    dagens Tabular details for tirsdag 22 oktober 2019
    tid Temp. ( °C ) Dew pt. ( °C ) vind ( km/h ) fra vindstød ( km/h ) lufttryk ( hPa ) Humid.( % ) Rainrate ( cm ) solenergi ( W/m2 )
    00:00 12,1 12,1 4,8 ssø 11,3 1016,8 100 - -
    00:05 12,1 12,1 1,6 ssø 4,8 1016,8 100 - -
    00:10 12,1 12,1 11,3 syd 2,7 1016,7 100 - -
    00:15 12,1 12,1 13,0 syd 6,8 1016,7 100 - -
    00:20 12,1 12,1 4,8 syd 4,8 1016,8 100 - -
    00:25 12,1 12,1 9,7 syd 9,7 1016,9 100 - -
    00:30 12,2 12,2 4,8 ssø 19,3 1016,9 100 - -
    00:35 12,2 12,2 4,8 ssø 8,0 1017,0 100 - -
    00:40 12,2 12,2 8,0 ssø 11,3 1017,0 100 - -
    00:45 12,2 12,2 4,8 ssø 14,5 1016,8 100 - -
    00:50 12,2 12,2 1,6 syd 9,7 1016,8 100 - -
    00:55 12,2 12,2 7,4 syd 5,3 1016,7 100 - -
    01:00 12,2 12,2 3,2 ssø 4,8 1016,7 100 - -
    01:05 12,2 12,2   stille 6,4 1016,8 100 - -
    01:10 12,1 12,1 1,6 ssø 6,4 1016,7 100 - -
    01:15 12,0 12,0 3,2 ssø 6,4 1016,8 100 - -
    01:20 11,9 11,9 5,6 vnv 1,6 1016,7 100 - -
    01:25 11,9 11,9 8,0 ssø 3,4 1016,8 100 - -
    01:30 11,9 11,9 3,2 ssø 9,7 1016,8 100 - -
    01:35 11,9 11,9 11,1 ssø 4,7 1016,8 100 - -
    01:40 11,9 11,9 1,6 ssø 11,3 1016,8 100 - -
    01:45 11,9 11,9 3,2 ssø 11,3 1016,8 100 - -
    01:50 11,9 11,9 1,6 sv 8,0 1017,0 100 - -
    01:55 11,9 11,9 4,8 sv 8,0 1017,1 100 - -
    02:00 11,8 11,8 8,0 sv 14,5 1017,0 100 - -
    02:05 11,8 11,8 1,6 vsv 6,4 1017,0 100 - -
    02:10 11,8 11,8 8,0 vsv 16,1 1017,0 100 - -
    02:15 11,8 11,8 4,8 vsv 11,3 1017,1 100 - -
    02:20 11,8 11,8 8,0 vsv 12,9 1017,0 100 - -
    02:25 11,8 11,8 9,7 vsv 19,3 1017,0 100 - -
    02:30 11,8 11,8 4,8 sv 14,5 1017,1 100 - -
    02:35 11,8 11,8 4,8 sv 9,7 1017,1 100 - -
    02:40 11,8 11,8 8,0 sv 11,3 1017,1 100 - -
    02:45 11,8 11,8 3,2 vsv 11,3 1017,1 100 - -
    02:50 11,8 11,8 3,2 vsv 6,4 1017,1 100 - -
    02:55 11,8 11,8 1,6 vsv 6,4 1017,1 100 - -
    03:00 11,8 11,8 1,6 sv 4,8 1017,1 100 - -
    03:05 11,8 11,8 1,6 ssø 8,0 1017,1 100 - -
    03:10 11,8 11,8 1,6 ssø 9,7 1017,0 100 - -
    03:15 11,8 11,8 9,3 vsv 5,6 1017,0 100 - -
    03:20 11,8 11,8 1,6 sv 4,8 1017,0 100 - -
    03:25 11,8 11,8 3,2 ssø 6,4 1016,9 100 - -
    03:30 11,8 11,8 4,8 ssø 9,7 1016,9 100 - -
    03:35 11,8 11,8 1,6 syd 8,0 1017,0 100 - -
    03:40 11,8 11,8 4,8 ssø 6,4 1016,9 100 - -
    03:45 11,8 11,8 8,0 ssø 14,5 1016,7 100 - -
    03:50 11,7 11,7 1,6 sv 4,8 1016,6 100 - -
    03:55 11,7 11,7 1,6 sv 4,8 1016,6 100 - -
    04:00 11,6 11,6 3,2 sv 6,4 1016,6 100 - -
    04:05 11,6 11,6 1,6 sv 4,8 1016,6 100 - -
    04:10 11,6 11,6 3,2 ssø 11,3 1016,6 100 - -
    04:15 11,6 11,6 4,8 sv 6,4 1016,6 100 - -
    04:20 11,5 11,5   stille 4,8 1016,6 100 - -
    04:25 11,5 11,5 1,6 syd 6,4 1016,6 100 - -
    04:30 11,4 11,4 1,6 ssø 3,2 1016,5 100 - -
    04:35 11,4 11,4   stille 3,2 1016,6 100 - -
    04:40 11,4 11,4 1,6 ssø 3,2 1016,5 100 - -
    04:45 11,3 11,3 1,6 ssø 6,4 1016,5 100 - -
    04:50 11,2 11,2 3,2 6,4 1016,4 100 - -
    04:55 11,1 11,1 4,8 6,4 1016,3 100 - -
    05:00 11,0 11,0 3,2 4,8 1016,3 100 - -
    05:05 10,9 10,9 1,6 ssø 4,8 1016,5 100 - -
    05:10 10,9 10,9 3,2 ssø 4,8 1016,4 100 - -
    05:15 10,9 10,9 3,2 ssø 8,0 1016,3 100 - -
    05:20 10,9 10,9   stille 3,2 1016,3 100 - -
    05:25 10,9 10,9   stille 1,6 1016,3 100 - -
    05:30 10,9 10,9 3,2 syd 8,0 1016,4 100 - -
    05:35 10,9 10,9 1,6 ssø 4,8 1016,4 100 - -
    05:40 10,9 10,9 1,6 ssø 9,7 1016,4 100 - -
    05:45 11,1 11,1 1,6 syd 6,4 1016,3 100 - -
    05:50 11,2 11,2 1,9 ssø 0,3 1016,3 100 - -
    05:55 11,3 11,3 1,6 ssø 9,7 1016,3 100 - -
    06:00 11,3 11,3 3,2 syd 6,4 1016,3 100 - -
    06:05 11,3 11,3 3,2 syd 6,4 1016,2 100 - -
    06:10 11,3 11,3   stille 3,2 1016,2 100 - -
    06:15 11,3 11,3   stille   1016,3 100 - -
    06:20 11,3 11,3 3,2 syd 4,8 1016,3 100 - -
    06:25 11,3 11,3 3,2 syd 11,3 1016,3 100 - -
    06:30 11,3 11,3 3,2 syd 8,0 1016,3 100 - -
    06:35 11,2 11,2 3,2 syd 9,7 1016,4 100 - -
    06:40 11,2 11,2 4,8 ssø 9,7 1016,4 100 - -
    06:45 11,2 11,2 3,2 syd 11,3 1016,4 100 - -
    06:50 11,2 11,2 4,8 syd 9,7 1016,4 100 - -
    06:55 11,2 11,2 1,6 syd 6,4 1016,3 100 - -
    07:00 11,2 11,2 4,8 syd 11,3 1016,2 100 - -
    07:05 11,2 11,2 4,8 syd 8,0 1016,3 100 - -
    07:10 11,2 11,2 3,2 syd 8,0 1016,3 100 - -
    07:15 11,2 11,2 1,6 ssø 6,4 1016,4 100 - -
    07:20 11,2 11,2 3,2 ssø 8,0 1016,4 100 - -
    07:25 11,2 11,2 3,2 ssø 9,7 1016,5 100 - -
    07:30 11,2 11,2 8,0 ssø 19,3 1016,5 100 - -
    07:35 11,2 11,2 3,2 ssø 11,3 1016,5 100 - -
    07:40 11,2 11,2 3,2 ssø 16,1 1016,6 100 - -
    07:45 11,2 11,2 8,0 ssø 12,9 1016,6 100 - -
    07:50 11,1 11,1 8,0 sv 8,0 1016,6 100 - -
    07:55 11,1 11,1 4,8 sv 22,5 1016,6 100 - 0.7
    08:00 11,0 11,0 4,8 ssø 14,5 1016,7 100 - 1.6
    08:05 10,9 10,9 9,7 syd 16,1 1016,8 100 - 2.7
    08:10 10,9 10,9 4,8 ssø 8,0 1016,7 100 - 3.8
    08:15 10,9 10,9 3,2 syd 12,9 1016,8 100 - 4.9
    08:20 10,8 10,8 4,8 ssø 9,7 1016,8 100 - 6.1
    08:25 10,8 10,8 4,8 syd 8,0 1016,8 100 - 7.2
    08:30 10,7 10,7 8,0 syd 19,3 1016,8 100 - 8.4
    08:35 10,6 10,6 8,0 ssø 11,3 1016,9 100 - 9.6
    08:40 10,5 10,5 3,2 syd 11,3 1017,0 100 - 10.8
    08:45 10,4 10,4 4,8 syd 11,3 1017,1 100 - 12
    08:50 10,4 10,4 4,8 syd 11,3 1017,1 100 - 13.3
    08:55 10,3 10,3 3,2 ssø 9,7 1017,2 100 - 14.5
    09:00 10,3 10,3 8,0 syd 19,3 1017,1 100 0,30 15.8
    09:05 10,4 10,4 7,4 ssø 2,7 1017,2 100 0,30 39
    09:10 10,4 10,4 4,8 ssø 16,1 1017,2 100 - 18.1
    09:15 10,4 10,4 4,8 syd 14,5 1017,2 100 - 19.3
    09:20 10,5 10,5 4,8 syd 14,5 1017,2 100 - 20.3
    09:25 10,6 10,6 3,2 ssø 8,0 1017,2 100 - 21.5
    09:30 10,6 10,3 4,8 ssø 9,7 1017,2 98 - 22.5
    09:35 10,7 10,2 4,8 ssø 8,0 1017,1 97 - 23.6
    09:40 10,7 10,7 4,8 ssø 4,8 1017,1 100 - 24.7
    09:45 10,7 10,6 4,8 syd 9,7 1017,1 99 - 25.7
    09:50 10,8 10,3 4,8 ssø 14,5 1017,1 97 - 26.7
    09:55 10,8 10,3 4,8 syd 9,7 1017,1 97 - 27.9
    10:00 10,8 10,4 11,3 syd 19,3 1017,1 97 - 28.8
    10:05 10,9 10,4 11,3 ssø 19,3 1017,2 97 - 29.6
    10:10 10,9 10,5 11,3 ssø 19,3 1017,3 97 - 30.6
    10:15 11,1 10,6 9,7 syd 19,3 1017,4 97 - 31.5
    10:20 11,1 10,7 9,7 ssø 14,5 1017,4 97 - 32.3
    10:25 11,2 10,7 8,0 ssø 16,1 1017,4 97 - 33.2
    10:30 11,2 10,8 9,7 ssø 19,3 1017,5 97 - 34
    10:35 11,3 10,8 11,3 syd 19,3 1017,5 97 - 34.8
    10:40 11,3 10,7 14,5 syd 25,7 1017,6 96 - 35.5
    10:45 11,4 10,8 12,9 ssø 24,1 1017,6 96 - 36.1
    10:50 11,6 10,9 11,3 ssø 19,3 1017,7 96 - 36.6
    10:55 11,6 10,8 14,5 syd 25,7 1017,7 95 - 37.3
    11:00 11,7 10,9 16,1 ssø 29,0 1017,7 95 - 37.8
    11:05 11,8 11,1 12,9 syd 29,0 1017,7 95 - 37.9
    11:10 12,0 11,1 9,7 syd 25,7 1017,6 94 - 38.3
    11:15 12,1 11,0 19,3 syd 24,1 1017,7 93 - 38.7
    11:20 12,3 11,2 11,3 ssø 19,3 1017,7 93 - 38.8
    11:25 12,4 11,3 11,3 syd 19,3 1017,7 93 - 39
    11:30 12,4 11,1 11,3 syd 22,5 1017,7 92 - 39.5
    11:35 12,4 11,1 11,3 ssø 19,3 1017,8 92 - 40.1
    11:40 12,3 11,1 11,3 syd 22,5 1017,8 92 - 40.8
    11:45 12,3 11,1 12,9 syd 20,9 1017,7 92 - 41.3
    11:50 12,3 11,1 11,3 syd 22,5 1017,6 92 - 41.8
    11:55 12,3 11,1 12,9 ssø 16,1 1017,8 92 - 42.1
    12:00 12,3 11,1 9,7 syd 19,3 1017,8 92 - 42.3
    12:05 12,4 11,2 8,0 syd 11,3 1017,7 92 - 42.4
    12:10 12,5 11,2 11,3 syd 20,9 1017,6 92 - 42.5
    12:15 12,6 11,3 8,0 syd 11,3 1017,6 92 - 42.6
    12:20 12,6 11,3 11,3 syd 19,3 1017,5 92 - 42.7
    12:25 12,7 11,2 12,9 ssø 19,3 1017,6 91 - 42.6
    12:30 12,7 11,2 9,7 ssø 19,3 1017,6 91 - 42.8
    12:35 12,6 11,4 8,0 ssø 19,3 1017,5 92 - 43.1
    12:40 12,6 11,2 11,3 ssø 19,3 1017,6 91 - 43.4
    12:45 12,6 11,3 9,7 ssø 24,1 1017,6 92 - 43.5
    12:50 12,6 11,3 11,3 ssø 24,1 1017,6 92 - 43.5
    12:55 12,5 11,3 9,7 ssø 9,7 1017,6 92 - 43.7
    13:00 12,5 11,2 12,9 ssø 22,5 1017,8 92 - 43.6
    13:05 12,4 11,2 12,9 ssø 22,5 1017,8 92 - 43.6
    13:10 12,4 11,2 12,9 ssø 19,3 1017,8 92 - 43.5
    13:15 12,4 11,1 9,7 ssø 16,1 1017,8 92 - 43.6
    13:20 12,4 11,1 11,3 ssø 16,1 1017,8 92 - 43.4
    13:25 12,4 11,1 9,7 syd 19,3 1017,8 92 - 43.1
    13:30 12,4 11,1 4,8 ssø 20,9 1017,8 92 - 42.9
    13:35 12,4 11,1 9,7 syd 12,9 1017,8 92 - 42.6
    13:40 12,4 11,3 11,3 ssø 19,3 1017,9 93 - 42.3
    13:45 12,4 11,3 9,7 ssø 24,1 1017,9 93 - 41.7
    13:50 12,4 11,3 12,9 ssø 20,9 1017,8 93 - 41.2
    13:55 12,4 11,3 9,7 ssø 19,3 1017,7 93 - 40.9
    14:00 12,5 11,4 9,7 ssø 22,5 1017,7 93 - 40.1
    14:05 12,6 11,5 11,3 ssø 16,1 1017,7 93 - 39.3
    14:10 12,7 11,6 12,9 ssø 20,9 1017,6 93 - 38.6
    14:15 12,7 11,6 11,3 ssø 19,3 1017,6 93 - 37.8
    14:20 12,8 11,7 8,0 sv 19,3 1017,6 93 - 37.1
    14:25 12,8 11,7 9,7 ssø 16,1 1017,7 93 - 36.5
    14:30 12,8 11,5 4,8 sv 8,0 1017,7 92 - 35.8
    14:35 12,8 11,7 4,8 ssø 16,1 1017,7 93 - 35.2
    14:40 12,8 11,7 11,3 sv 11,3 1017,8 93 - 34.5
    14:45 12,8 11,7 11,3 sv 11,3 1017,8 93 - 33.8
    14:50 12,8 11,7 8,0 sv 16,1 1017,8 93 - 33
    14:55 12,8 11,7 9,7 ssø 14,5 1017,8 93 - 32.2
    15:00 12,8 11,7 11,3 ssø 17,7 1017,8 93 - 31.3
    15:05 12,8 11,7 9,7 sv 19,3 1017,7 93 - 30.7
    15:10 12,7 11,6 8,0 ssø 16,1 1017,7 93 - 30
    15:15 12,7 11,6 11,3 sv 19,3 1017,7 93 - 29.2
    15:20 12,7 11,6 14,8 vsv 7,7 1017,7 93 - 28.4
    15:25 12,7 11,6 12,9 sv 20,9 1017,7 93 - 27.6
    15:30 12,7 11,7 4,8 sv 11,3 1017,7 94 - 26.6
    15:35 12,6 11,7 9,7 vsv 14,5 1017,7 94 - 25.8
    15:40 12,6 11,7 9,7 sv 14,5 1017,8 94 - 24.9
    15:45 12,6 11,7 8,0 ssø 11,3 1017,8 94 - 23.9
    15:50 12,6 11,7 11,3 ssø 20,9 1017,8 94 - 23.1
    15:55 12,6 11,6 18,5 ssø 13,4 1017,8 94 - 35
    16:00 12,6 11,6 8,0 ssø 12,9 1017,8 94 - 21.1
    16:05 12,6 11,6 9,7 sv 16,1 1017,8 94 - 20.1
    16:10 12,6 11,6 8,0 vsv 11,3 1017,8 94 - 19.2
    16:15 12,6 11,6 11,3 vsv 19,3 1017,8 94 - 18.1
    16:20 12,6 11,6 3,2 sv 19,3 1017,8 94 - 17.2
    16:25 12,6 11,6 4,8 vsv 9,7 1017,8 94 - 16.1
    16:30 12,6 11,6 8,0 vsv 11,3 1017,8 94 - 15.2
    16:35 12,6 11,6 4,8 vsv 8,0 1017,7 94 - 14.1
    16:40 12,6 11,6 8,0 sv 12,9 1017,7 94 - 13
    16:45 12,6 11,6 9,3 sv 5,8 1017,7 94 - 12.1
    16:50 12,6 11,6 8,0 sv 14,5 1017,7 94 - 11
    16:55 12,6 11,6 8,0 sv 8,0 1017,7 94 - 10.1
    17:00 12,6 11,6 8,0 ssø 9,7 1017,7 94 - 9
    17:05 12,6 11,6 4,8 ssø 11,3 1017,8 94 - 8.1
    17:10 12,6 11,6 4,8 ssø 16,1 1017,8 94 - 7.1
    17:15 12,5 11,6 8,0 ssø 9,7 1017,8 94 - 6.1
    17:20 12,5 11,6 13,0 ssø 7,9 1017,8 94 - 16
    17:25 12,4 11,5 8,0 ssø 14,5 1017,8 94 - 4.2
    17:30 12,4 11,5 8,0 ssø 17,7 1017,7 94 - 3.2
    17:35 12,4 11,4 4,8 sv 8,0 1017,7 94 - 2.3
    17:40 12,3 11,4 1,6 sv 8,0 1017,8 94 - 1.3
    17:45 12,3 11,4 4,8 sv 11,3 1017,8 94 - 0.4
    17:50 12,3 11,3 5,6 ssø 1,8 1017,8 94 - -
    17:55 12,3 11,3 1,6 syd 9,7 1017,8 94 - -
    18:00 12,2 11,4 8,0 ssø 9,7 1017,9 95 - -
    18:05 12,2 11,2 4,8 ssø 12,9 1017,9 94 - -
    18:10 12,2 11,4 4,8 ssø 6,4 1017,9 95 - -
    18:15 12,1 11,3 4,8 ssø 9,7 1018,0 95 - -
    18:20 12,1 11,3 8,0 ssø 9,7 1018,1 95 - -
    18:25 12,0 11,2 8,0 ssø 8,0 1018,1 95 - -
    18:30 11,9 11,2 4,8 ssø 11,3 1018,1 95 - -
    18:35 11,8 11,1 9,7 ssø 16,1 1018,0 95 - -
    18:40 11,8 11,0 11,1 ssø 5,0 1018,0 95 - -
    18:45 11,7 10,9 3,2 ssø 6,4 1018,0 95 - -
    18:50 11,6 10,8 4,8 ssø 11,3 1018,0 95 - -
    18:55 11,5 10,7 4,8 ssø 9,7 1018,1 95 - -
    19:01 11,4 10,7 4,8 syd 8,0 1018,1 95 - -
    19:05 11,3 10,6 4,8 syd 8,0 1018,2 95 - -
    19:10 11,3 10,5 4,8 ssø 11,3 1018,2 95 - -
    19:15 11,2 10,4 4,8 ssø 11,3 1018,3 95 - -
    19:20 11,1 10,3 8,0 syd 14,5 1018,4 95 - -
    19:25 11,1 10,3 3,2 syd 4,8 1018,4 95 - -
    19:30 10,9 10,2 4,8 ssø 11,3 1018,5 95 - -
    19:35 10,9 10,2 4,8 ssø 11,3 1018,3 95 - -
    19:40 10,8 10,1 1,6 ssø 3,2 1018,4 95 - -
    19:45 10,8 10,2 3,2 ssø 6,4 1018,5 96 - -
    19:50 10,8 10,2 4,8 syd 8,0 1018,5 96 - -
    19:55 10,7 10,1 4,8 ssø 9,7 1018,6 96 - -
    20:00 10,7 10,1 4,8 ssø 9,7 1018,6 96 - -
    20:05 10,6 9,9 3,2 ssø 9,7 1018,7 96 - -
    20:10 10,6 9,9 3,2 ssø 6,4 1018,7 96 - -
    20:15 10,5 9,9 3,2 ssø 6,4 1018,8 96 - -
    20:20 10,4 9,8 16,7 ssø 8,2 1018,9 96 - -
    20:25 10,4 10,0 8,0 ssø 9,7 1018,9 97 - -
    20:30 10,6 10,1 8,0 ssø 11,3 1018,8 97 - -
    20:35 10,6 10,2 8,0 ssø 9,7 1018,8 97 - -
    20:40 10,7 10,2 8,0 sv 12,9 1018,9 97 - -
    20:45 10,7 10,3 9,7 sv 16,1 1018,8 97 - -
    20:50 10,8 10,3 3,2 ssø 6,4 1018,8 97 - -
    20:55 10,8 10,3 4,8 sv 9,7 1018,8 97 - -
    21:00 10,7 10,3 4,8 ssø 11,3 1018,8 97 - -
    21:06 10,6 10,2 13,0 syd 6,4 1018,8 97 - -
    21:10 10,6 10,1 11,1 ssø 6,6 1018,8 97 - -
    21:15 10,5 10,1 8,0 ssø 11,3 1018,8 97 - -
    21:20 10,4 10,0 8,0 sv 11,3 1018,8 97 - -
    21:25 10,4 10,0 8,0 sv 19,3 1018,9 97 - -
    21:30 10,4 10,0 11,1 vest 6,9 1018,9 97 - -
    21:35 10,5 10,1 3,2 sv 4,8 1018,9 97 - -
    21:40 10,4 10,0 4,8 sv 9,7 1018,9 97 - -

    Download your copy of this data-set  here

    Our weather-data as stored at Weather Underground. script udviklet af Jim McMurry. tilpasset til dette template Leuven-Template.eu

    du finder også vores vejrinformationer på:

    European Weather Network

    Weather Underground

    AWEKAS

    WeatherlinkIP

    Citizen Weather Observer Program (CWOP)

    udstyr som vi anvender:

    vejrstation
    Davis VP2+

    vejrprogram
    Weather Display

    vejrserver
    Dell E6400

    hjemmeside host
    Webhosting.dk

    Davis VP2+

    Weather Display

    Dell E6400

    Webhosting.dk